Time;durP1;ratioP1;P1;durP2;ratioP2;P2;SDS_P1;SDS_P2;PMS_P1;PMS_P2;Temp;Humidity;BMP_temperature;BMP_pressure;BME280_temperature;BME280_humidity;BME280_pressure;Samples;Min_cycle;Max_cycle;Signal;HPM_P1;HPM_P2
2024/01/04 00:01:34;;;;;;;6.57;2.10;;;7.30;99.90;;;;;;485247;245;27766;-68
2024/01/04 00:03:35;;;;;;;5.20;1.70;;;7.30;99.90;;;;;;485203;245;27884;-67
2024/01/04 00:05:36;;;;;;;7.30;1.87;;;7.20;99.90;;;;;;485252;245;27889;-67
2024/01/04 00:07:37;;;;;;;5.63;1.60;;;7.20;99.90;;;;;;485233;245;27854;-66
2024/01/04 00:09:38;;;;;;;4.90;1.60;;;7.30;99.90;;;;;;485209;245;28005;-67
2024/01/04 00:11:40;;;;;;;5.67;1.83;;;7.30;99.90;;;;;;485183;245;27881;-68
2024/01/04 00:13:41;;;;;;;6.60;2.03;;;7.20;99.90;;;;;;485215;245;27879;-67
2024/01/04 00:15:42;;;;;;;8.90;1.87;;;7.20;99.90;;;;;;485245;245;28115;-67
2024/01/04 00:17:43;;;;;;;4.27;1.50;;;7.20;99.90;;;;;;485234;245;28755;-67
2024/01/04 00:19:45;;;;;;;6.30;1.73;;;7.20;99.90;;;;;;485245;245;28067;-66
2024/01/04 00:21:46;;;;;;;11.17;1.77;;;7.20;99.90;;;;;;485230;245;27526;-67
2024/01/04 00:23:47;;;;;;;10.67;2.20;;;7.20;99.90;;;;;;485203;245;28306;-67
2024/01/04 00:25:48;;;;;;;7.43;2.23;;;7.20;99.90;;;;;;485246;245;28385;-67
2024/01/04 00:27:50;;;;;;;7.40;2.10;;;7.20;99.90;;;;;;485243;245;28243;-68
2024/01/04 00:29:51;;;;;;;7.77;1.97;;;7.20;99.90;;;;;;485236;242;28081;-66
2024/01/04 00:31:54;;;;;;;10.10;2.20;;;7.20;99.90;;;;;;485246;245;27797;-66
2024/01/04 00:33:53;;;;;;;3.43;1.63;;;7.20;99.90;;;;;;485066;245;27999;-66
2024/01/04 00:35:55;;;;;;;8.60;2.00;;;7.20;99.90;;;;;;485242;245;27885;-66
2024/01/04 00:37:57;;;;;;;7.47;1.63;;;7.20;99.90;;;;;;485242;245;27945;-67
2024/01/04 00:39:57;;;;;;;8.20;1.90;;;7.20;99.90;;;;;;485176;245;27875;-66
2024/01/04 00:41:58;;;;;;;11.00;2.60;;;7.20;99.90;;;;;;485202;245;27772;-66
2024/01/04 00:44:00;;;;;;;4.83;2.00;;;7.20;99.90;;;;;;485203;245;27521;-65
2024/01/04 00:46:01;;;;;;;9.53;1.80;;;7.20;99.90;;;;;;485248;245;28834;-67
2024/01/04 00:48:02;;;;;;;7.00;2.00;;;7.20;99.90;;;;;;485219;245;27981;-67
2024/01/04 00:50:03;;;;;;;6.03;1.80;;;7.20;99.90;;;;;;485225;245;28762;-66
2024/01/04 00:52:05;;;;;;;6.23;1.90;;;7.20;99.90;;;;;;485225;245;27763;-66
2024/01/04 00:54:06;;;;;;;4.70;1.90;;;7.20;99.90;;;;;;485199;245;28578;-66
2024/01/04 00:56:08;;;;;;;3.70;1.77;;;7.20;99.90;;;;;;485238;245;27528;-66
2024/01/04 00:58:08;;;;;;;10.13;2.10;;;7.20;99.90;;;;;;485213;245;28411;-66
2024/01/04 01:00:10;;;;;;;5.20;1.90;;;7.20;99.90;;;;;;485237;245;28210;-66
2024/01/04 01:02:11;;;;;;;7.90;2.57;;;7.20;99.90;;;;;;485234;245;28351;-67
2024/01/04 01:04:12;;;;;;;5.97;2.20;;;7.20;99.90;;;;;;485205;245;28567;-67
2024/01/04 01:06:13;;;;;;;10.03;2.07;;;7.20;99.90;;;;;;485092;245;28062;-66
2024/01/04 01:08:15;;;;;;;4.60;1.63;;;7.20;99.90;;;;;;484994;245;28451;-67
2024/01/04 01:10:16;;;;;;;4.70;2.20;;;7.20;99.90;;;;;;485213;245;28019;-67
2024/01/04 01:12:17;;;;;;;9.40;2.47;;;7.20;99.90;;;;;;485228;245;27971;-67
2024/01/04 01:14:18;;;;;;;10.10;2.70;;;7.20;99.90;;;;;;485219;245;27406;-67
2024/01/04 01:16:20;;;;;;;9.73;2.17;;;7.20;99.90;;;;;;485254;245;27876;-66
2024/01/04 01:18:21;;;;;;;5.70;2.07;;;7.20;99.90;;;;;;485261;245;27954;-67
2024/01/04 01:20:22;;;;;;;8.97;2.60;;;7.20;99.90;;;;;;485240;245;27493;-66
2024/01/04 01:22:24;;;;;;;5.10;1.83;;;7.30;99.90;;;;;;485249;245;28216;-66
2024/01/04 01:24:25;;;;;;;6.30;2.07;;;7.20;99.90;;;;;;485199;242;28092;-67
2024/01/04 01:26:26;;;;;;;3.77;1.70;;;7.20;99.90;;;;;;485242;245;27620;-66
2024/01/04 01:28:27;;;;;;;4.80;1.53;;;7.20;99.90;;;;;;485253;242;27949;-67
2024/01/04 01:30:29;;;;;;;5.47;2.23;;;7.30;99.90;;;;;;485242;243;27893;-67
2024/01/04 01:32:30;;;;;;;9.18;1.98;;;7.20;99.90;;;;;;485257;242;27869;-66
2024/01/04 01:34:31;;;;;;;5.73;1.83;;;7.30;99.90;;;;;;485222;242;27399;-67
2024/01/04 01:36:32;;;;;;;6.30;1.90;;;7.30;99.90;;;;;;485221;245;28757;-66
2024/01/04 01:38:34;;;;;;;5.10;1.77;;;7.20;99.90;;;;;;485248;245;28018;-66
2024/01/04 01:40:35;;;;;;;5.47;1.90;;;7.30;99.90;;;;;;485253;245;27871;-67
2024/01/04 01:42:36;;;;;;;6.17;1.90;;;7.20;99.90;;;;;;485255;242;27489;-65
2024/01/04 01:44:37;;;;;;;4.77;1.50;;;7.20;99.90;;;;;;485197;243;27771;-66
2024/01/04 01:46:39;;;;;;;4.43;1.93;;;7.20;99.90;;;;;;485189;245;27871;-66
2024/01/04 01:48:40;;;;;;;8.10;1.90;;;7.20;99.90;;;;;;485222;245;27885;-66
2024/01/04 01:50:41;;;;;;;7.10;1.80;;;7.30;99.90;;;;;;485223;245;28835;-67
2024/01/04 01:52:42;;;;;;;12.20;1.87;;;7.30;99.90;;;;;;485241;245;27850;-66
2024/01/04 01:54:44;;;;;;;4.43;1.67;;;7.20;99.90;;;;;;485241;245;28039;-66
2024/01/04 01:56:45;;;;;;;8.70;1.60;;;7.20;99.90;;;;;;485264;245;28052;-67
2024/01/04 01:58:46;;;;;;;8.27;1.90;;;7.20;99.90;;;;;;485265;245;28025;-66
2024/01/04 02:00:47;;;;;;;5.97;1.60;;;7.20;99.90;;;;;;485253;245;27887;-67
2024/01/04 02:02:49;;;;;;;6.50;1.57;;;7.20;99.90;;;;;;485257;245;27899;-66
2024/01/04 02:04:50;;;;;;;4.87;1.50;;;7.20;99.90;;;;;;485216;242;28370;-66
2024/01/04 02:06:51;;;;;;;9.83;2.07;;;7.30;99.90;;;;;;485236;245;28341;-68
2024/01/04 02:08:52;;;;;;;4.57;1.90;;;7.20;99.90;;;;;;485255;245;28462;-66
2024/01/04 02:10:54;;;;;;;7.50;2.07;;;7.20;99.90;;;;;;485254;245;28470;-66
2024/01/04 02:12:55;;;;;;;9.00;1.90;;;7.20;99.90;;;;;;485254;245;28550;-66
2024/01/04 02:14:56;;;;;;;7.30;2.08;;;7.20;99.90;;;;;;485093;245;28233;-66
2024/01/04 02:16:57;;;;;;;7.97;2.20;;;7.20;99.90;;;;;;485256;245;27412;-67
2024/01/04 02:18:59;;;;;;;4.07;1.50;;;7.10;99.90;;;;;;485245;245;27995;-66
2024/01/04 02:21:00;;;;;;;5.35;1.67;;;7.10;99.90;;;;;;485228;245;27877;-67
2024/01/04 02:23:01;;;;;;;4.40;1.57;;;7.10;99.90;;;;;;485251;245;27402;-66
2024/01/04 02:25:02;;;;;;;3.63;1.50;;;7.10;99.90;;;;;;485230;245;27964;-66
2024/01/04 02:27:04;;;;;;;9.10;1.73;;;7.20;99.90;;;;;;485231;245;28030;-67
2024/01/04 02:29:05;;;;;;;10.13;1.70;;;7.20;99.90;;;;;;485262;245;27863;-66
2024/01/04 02:31:06;;;;;;;3.77;1.50;;;7.20;99.90;;;;;;485247;245;27964;-66
2024/01/04 02:33:07;;;;;;;4.40;1.70;;;7.10;99.90;;;;;;485246;245;27874;-67
2024/01/04 02:35:09;;;;;;;5.30;1.40;;;7.10;99.90;;;;;;485209;244;28230;-66
2024/01/04 02:37:10;;;;;;;4.27;1.43;;;7.10;99.90;;;;;;485238;245;28333;-67
2024/01/04 02:39:11;;;;;;;5.82;1.70;;;7.10;99.90;;;;;;485238;245;28215;-66
2024/01/04 02:41:12;;;;;;;3.03;1.33;;;7.10;99.90;;;;;;485231;245;27446;-66
2024/01/04 02:43:14;;;;;;;7.03;1.70;;;7.10;99.90;;;;;;485250;245;28119;-67
2024/01/04 02:45:15;;;;;;;8.35;1.58;;;7.10;99.90;;;;;;485229;245;27490;-67
2024/01/04 02:47:16;;;;;;;5.93;1.43;;;7.20;99.90;;;;;;482279;245;27533;-67
2024/01/04 02:49:17;;;;;;;4.57;1.50;;;7.20;99.90;;;;;;478478;247;27883;-66
2024/01/04 02:51:19;;;;;;;7.90;2.17;;;7.10;99.90;;;;;;478476;248;27896;-66
2024/01/04 02:53:20;;;;;;;5.07;1.70;;;7.20;99.90;;;;;;478371;248;27873;-67
2024/01/04 02:55:21;;;;;;;3.20;1.70;;;7.20;99.90;;;;;;478460;248;27853;-67
2024/01/04 02:57:22;;;;;;;5.43;1.57;;;7.10;99.90;;;;;;478473;248;27985;-66
2024/01/04 02:59:24;;;;;;;4.53;1.80;;;7.10;99.90;;;;;;478487;248;27891;-66
2024/01/04 03:01:25;;;;;;;2.90;1.60;;;7.10;99.90;;;;;;478479;248;28083;-67
2024/01/04 03:03:26;;;;;;;5.53;2.17;;;7.10;99.90;;;;;;478477;248;27907;-67
2024/01/04 03:05:27;;;;;;;4.80;1.50;;;7.10;99.90;;;;;;478436;248;28570;-66
2024/01/04 03:07:29;;;;;;;8.27;1.67;;;7.10;99.90;;;;;;478473;248;29038;-67
2024/01/04 03:09:30;;;;;;;4.60;1.73;;;7.20;99.90;;;;;;478451;248;28593;-67
2024/01/04 03:11:31;;;;;;;3.30;1.67;;;7.20;99.90;;;;;;478481;248;28750;-66
2024/01/04 03:13:32;;;;;;;11.00;2.10;;;7.10;99.90;;;;;;478450;247;27902;-67
2024/01/04 03:15:34;;;;;;;6.53;1.60;;;7.20;99.90;;;;;;478424;248;27975;-67
2024/01/04 03:17:35;;;;;;;7.70;1.73;;;7.20;99.90;;;;;;478485;248;27986;-66
2024/01/04 03:19:36;;;;;;;6.97;1.90;;;7.10;99.90;;;;;;478480;248;27879;-67
2024/01/04 03:21:37;;;;;;;4.33;1.60;;;7.10;99.90;;;;;;478469;247;28441;-66
2024/01/04 03:23:39;;;;;;;6.37;2.20;;;7.10;99.90;;;;;;478438;247;28434;-67
2024/01/04 03:25:40;;;;;;;4.37;1.73;;;7.20;99.90;;;;;;478478;248;27644;-66
2024/01/04 03:27:42;;;;;;;4.70;1.70;;;7.20;99.90;;;;;;478469;248;27853;-66
2024/01/04 03:29:42;;;;;;;5.40;2.00;;;7.10;99.90;;;;;;478430;248;28030;-68
2024/01/04 03:31:44;;;;;;;5.43;2.07;;;7.20;99.90;;;;;;478471;248;28002;-67
2024/01/04 03:33:45;;;;;;;5.10;1.80;;;7.10;99.90;;;;;;478450;248;27672;-67
2024/01/04 03:35:46;;;;;;;5.60;1.80;;;7.10;99.90;;;;;;478483;248;27864;-66
2024/01/04 03:37:47;;;;;;;4.43;1.53;;;7.10;99.90;;;;;;478465;248;29262;-66
2024/01/04 03:39:49;;;;;;;4.10;1.73;;;7.10;99.90;;;;;;478472;248;28231;-67
2024/01/04 03:41:50;;;;;;;5.30;1.93;;;7.10;99.90;;;;;;478457;248;28361;-67
2024/01/04 03:43:51;;;;;;;4.50;1.73;;;7.10;99.90;;;;;;478449;248;28787;-66
2024/01/04 03:45:52;;;;;;;5.73;2.00;;;7.10;99.90;;;;;;478483;248;28553;-68
2024/01/04 03:47:54;;;;;;;5.53;1.47;;;7.10;99.90;;;;;;478432;248;28773;-67
2024/01/04 03:49:55;;;;;;;7.73;1.77;;;7.10;99.90;;;;;;478478;248;27589;-67
2024/01/04 03:51:56;;;;;;;7.73;1.67;;;7.10;99.90;;;;;;478464;248;28762;-66
2024/01/04 03:53:58;;;;;;;6.60;2.03;;;7.10;99.90;;;;;;478450;248;27880;-66
2024/01/04 03:55:59;;;;;;;4.50;1.80;;;7.10;99.90;;;;;;478454;248;27534;-68
2024/01/04 03:58:00;;;;;;;6.00;1.93;;;7.10;99.90;;;;;;478477;248;27964;-66
2024/01/04 04:00:01;;;;;;;6.00;1.83;;;7.10;99.90;;;;;;478476;248;27786;-66
2024/01/04 04:02:02;;;;;;;4.43;1.53;;;7.10;99.90;;;;;;478468;248;27853;-67
2024/01/04 04:04:04;;;;;;;9.57;1.80;;;7.00;99.90;;;;;;478445;248;27981;-66
2024/01/04 04:06:05;;;;;;;2.90;1.50;;;7.10;99.90;;;;;;478443;248;28004;-67
2024/01/04 04:08:06;;;;;;;2.90;1.57;;;7.10;99.90;;;;;;478466;248;27851;-67
2024/01/04 04:10:08;;;;;;;5.90;1.90;;;7.10;99.90;;;;;;478465;248;28766;-67
2024/01/04 04:12:09;;;;;;;6.67;1.97;;;7.10;99.90;;;;;;478453;248;27571;-67
2024/01/04 04:14:10;;;;;;;3.17;1.43;;;7.10;99.90;;;;;;478436;248;28361;-67
2024/01/04 04:16:11;;;;;;;2.90;1.60;;;7.10;99.90;;;;;;478280;248;28240;-67
2024/01/04 04:18:12;;;;;;;5.07;1.50;;;7.10;99.90;;;;;;478485;248;28446;-67
2024/01/04 04:20:14;;;;;;;6.73;1.63;;;7.10;99.90;;;;;;478453;248;28729;-67
2024/01/04 04:22:15;;;;;;;5.83;1.80;;;7.10;99.90;;;;;;478454;248;28775;-66
2024/01/04 04:24:16;;;;;;;2.87;1.43;;;7.10;99.90;;;;;;478446;248;27879;-67
2024/01/04 04:26:17;;;;;;;1.60;1.30;;;7.10;99.90;;;;;;478478;248;27959;-68
2024/01/04 04:28:19;;;;;;;4.68;1.60;;;7.10;99.90;;;;;;478459;248;27518;-66
2024/01/04 04:30:20;;;;;;;1.87;1.30;;;7.10;99.90;;;;;;478473;248;27418;-66
2024/01/04 04:32:21;;;;;;;6.50;1.70;;;7.10;99.90;;;;;;478460;248;27945;-67
2024/01/04 04:34:22;;;;;;;5.30;1.80;;;7.10;99.90;;;;;;478437;248;27892;-66
2024/01/04 04:36:24;;;;;;;5.73;2.20;;;7.10;99.90;;;;;;478468;247;28197;-67
2024/01/04 04:38:25;;;;;;;2.40;1.30;;;7.00;99.90;;;;;;478474;248;27903;-66
2024/01/04 04:40:26;;;;;;;6.07;1.47;;;7.10;99.90;;;;;;478463;248;28754;-66
2024/01/04 04:42:27;;;;;;;6.72;1.50;;;7.10;99.90;;;;;;478477;248;27883;-67
2024/01/04 04:44:29;;;;;;;5.73;1.63;;;7.10;99.90;;;;;;478444;248;27850;-66
2024/01/04 04:46:30;;;;;;;5.65;1.75;;;7.10;99.90;;;;;;478442;248;29238;-66
2024/01/04 04:48:31;;;;;;;4.35;1.80;;;7.10;99.90;;;;;;478439;248;28213;-66
2024/01/04 04:50:32;;;;;;;6.03;2.07;;;7.10;99.90;;;;;;478471;248;27422;-66
2024/01/04 04:52:34;;;;;;;3.30;1.73;;;7.10;99.90;;;;;;478459;248;28100;-67
2024/01/04 04:54:35;;;;;;;5.83;1.80;;;7.10;99.90;;;;;;478439;248;28785;-66
2024/01/04 04:56:36;;;;;;;3.92;1.73;;;7.10;99.90;;;;;;478465;248;28797;-67
2024/01/04 04:58:37;;;;;;;3.57;1.60;;;7.10;99.90;;;;;;478465;248;27421;-67
2024/01/04 05:00:39;;;;;;;6.33;1.77;;;7.10;99.90;;;;;;478467;248;27608;-67
2024/01/04 05:02:40;;;;;;;5.97;2.20;;;7.10;99.90;;;;;;478471;248;27872;-67
2024/01/04 05:04:43;;;;;;;3.27;1.40;;;7.10;99.90;;;;;;478423;248;28461;-66
2024/01/04 05:06:42;;;;;;;8.83;1.97;;;7.10;99.90;;;;;;478391;248;28127;-66
2024/01/04 05:08:44;;;;;;;5.47;2.00;;;7.10;99.90;;;;;;478452;248;28250;-68
2024/01/04 05:10:45;;;;;;;7.33;1.93;;;7.10;99.90;;;;;;478469;247;28313;-67
2024/01/04 05:12:46;;;;;;;6.47;1.70;;;7.10;99.90;;;;;;478462;248;27998;-67
2024/01/04 05:14:47;;;;;;;5.87;1.70;;;7.10;99.90;;;;;;478423;248;27998;-66
2024/01/04 05:16:49;;;;;;;3.53;1.73;;;7.10;99.90;;;;;;478468;248;28359;-66
2024/01/04 05:18:50;;;;;;;5.47;1.63;;;7.10;99.90;;;;;;478436;248;28761;-67
2024/01/04 05:20:51;;;;;;;6.00;1.40;;;7.00;99.90;;;;;;478458;248;27864;-66
2024/01/04 05:22:52;;;;;;;2.37;1.60;;;7.10;99.90;;;;;;478464;248;27997;-67
2024/01/04 05:24:54;;;;;;;5.67;1.50;;;7.00;99.90;;;;;;478446;248;27979;-66
2024/01/04 05:26:55;;;;;;;8.23;1.83;;;7.00;99.90;;;;;;478462;247;28354;-67
2024/01/04 05:28:56;;;;;;;3.63;1.60;;;7.00;99.90;;;;;;478452;248;28093;-67
2024/01/04 05:30:57;;;;;;;2.77;1.60;;;7.00;99.90;;;;;;478456;248;27910;-66
2024/01/04 05:32:59;;;;;;;9.82;2.60;;;7.00;99.90;;;;;;478466;248;28109;-67
2024/01/04 05:35:00;;;;;;;5.20;1.50;;;7.00;99.90;;;;;;478392;248;27498;-68
2024/01/04 05:37:01;;;;;;;6.23;2.07;;;7.00;99.90;;;;;;478477;248;28003;-67
2024/01/04 05:39:03;;;;;;;3.50;1.67;;;7.00;99.90;;;;;;478475;248;27894;-67
2024/01/04 05:41:07;;;;;;;4.27;1.83;;;7.00;99.90;;;;;;478460;248;28324;-66
2024/01/04 05:43:08;;;;;;;7.80;2.37;;;7.00;99.90;;;;;;478450;248;28366;-67
2024/01/04 05:45:09;;;;;;;5.97;2.07;;;7.00;99.90;;;;;;478432;248;27628;-66
2024/01/04 05:47:10;;;;;;;5.83;1.90;;;7.00;99.90;;;;;;478468;248;27645;-67
2024/01/04 05:49:11;;;;;;;8.63;2.40;;;7.00;99.90;;;;;;478460;248;27985;-66
2024/01/04 05:51:13;;;;;;;7.87;2.20;;;7.00;99.90;;;;;;478476;248;27737;-67
2024/01/04 05:53:14;;;;;;;7.80;2.57;;;7.00;99.90;;;;;;478462;247;27639;-66
2024/01/04 05:55:15;;;;;;;6.70;2.60;;;7.00;99.90;;;;;;478337;248;28404;-66
2024/01/04 05:57:17;;;;;;;14.37;2.77;;;7.00;99.90;;;;;;478446;248;28468;-67
2024/01/04 05:59:18;;;;;;;7.97;2.03;;;7.00;99.90;;;;;;478464;248;28329;-66
2024/01/04 06:01:19;;;;;;;8.37;2.63;;;7.00;99.90;;;;;;478470;248;27407;-66
2024/01/04 06:03:20;;;;;;;5.60;2.40;;;7.00;99.90;;;;;;478478;248;27886;-68
2024/01/04 06:05:22;;;;;;;8.52;1.87;;;7.00;99.90;;;;;;478452;248;28840;-66
2024/01/04 06:07:23;;;;;;;8.73;2.33;;;7.00;99.90;;;;;;478492;248;27406;-68
2024/01/04 06:09:24;;;;;;;8.27;2.80;;;7.00;99.90;;;;;;478474;248;27893;-66
2024/01/04 06:11:25;;;;;;;10.20;2.73;;;7.00;99.90;;;;;;478475;248;28228;-67
2024/01/04 06:13:27;;;;;;;8.90;2.30;;;7.00;99.90;;;;;;478490;248;28023;-67
2024/01/04 06:15:28;;;;;;;6.60;2.23;;;7.00;99.90;;;;;;478453;248;28119;-66
2024/01/04 06:17:29;;;;;;;8.87;1.90;;;6.90;99.90;;;;;;478485;248;28036;-67
2024/01/04 06:19:30;;;;;;;11.13;2.00;;;7.00;99.90;;;;;;478459;248;27979;-67
2024/01/04 06:21:32;;;;;;;11.83;2.40;;;6.90;99.90;;;;;;478478;248;28052;-66
2024/01/04 06:23:33;;;;;;;8.37;2.50;;;6.90;99.90;;;;;;478471;248;28714;-67
2024/01/04 06:25:34;;;;;;;10.15;1.98;;;7.00;99.90;;;;;;478444;247;28445;-67
2024/01/04 06:27:35;;;;;;;9.07;1.90;;;6.90;99.90;;;;;;478484;248;27427;-67
2024/01/04 06:29:37;;;;;;;17.33;3.07;;;6.90;99.90;;;;;;478475;248;27950;-67
2024/01/04 06:31:38;;;;;;;7.20;2.20;;;6.90;99.90;;;;;;478473;248;28838;-66
2024/01/04 06:33:39;;;;;;;8.60;2.33;;;6.90;99.90;;;;;;478444;248;28778;-68
2024/01/04 06:35:40;;;;;;;8.77;1.95;;;6.90;99.90;;;;;;478471;248;27947;-67
2024/01/04 06:37:42;;;;;;;8.37;2.30;;;6.90;99.90;;;;;;478465;248;27494;-67
2024/01/04 06:39:44;;;;;;;6.33;2.13;;;6.90;99.90;;;;;;478489;248;27414;-68
2024/01/04 06:41:44;;;;;;;10.52;2.08;;;6.90;99.90;;;;;;478431;248;27909;-67
2024/01/04 06:43:46;;;;;;;9.33;2.07;;;6.90;99.90;;;;;;478454;248;27962;-67
2024/01/04 06:45:47;;;;;;;11.40;2.10;;;6.90;99.90;;;;;;478489;248;28222;-67
2024/01/04 06:47:48;;;;;;;4.67;1.97;;;6.90;99.90;;;;;;478467;248;28299;-66
2024/01/04 06:49:49;;;;;;;5.13;2.20;;;6.90;99.90;;;;;;478475;248;28619;-68
2024/01/04 06:51:50;;;;;;;4.53;1.87;;;6.90;99.90;;;;;;483676;245;27876;-66
2024/01/04 06:53:52;;;;;;;9.63;2.73;;;6.90;99.90;;;;;;485209;245;29886;-66
2024/01/04 06:55:53;;;;;;;6.13;1.83;;;6.90;99.90;;;;;;485194;245;28751;-66
2024/01/04 06:57:54;;;;;;;3.60;1.90;;;6.90;99.90;;;;;;485233;245;28000;-66
2024/01/04 06:59:55;;;;;;;6.90;1.92;;;6.90;99.90;;;;;;485247;245;27938;-67
2024/01/04 07:01:57;;;;;;;11.07;2.00;;;6.90;99.90;;;;;;485240;245;27390;-66
2024/01/04 07:03:58;;;;;;;5.80;1.83;;;6.90;99.90;;;;;;485220;245;27548;-67
2024/01/04 07:05:59;;;;;;;9.50;2.27;;;6.80;99.90;;;;;;485235;245;27498;-68
2024/01/04 07:08:00;;;;;;;8.50;2.20;;;6.80;99.90;;;;;;485231;245;28454;-66
2024/01/04 07:10:02;;;;;;;8.40;2.43;;;6.80;99.90;;;;;;485228;245;28926;-67
2024/01/04 07:12:03;;;;;;;5.20;2.30;;;6.90;99.90;;;;;;485216;245;28893;-67
2024/01/04 07:14:04;;;;;;;8.65;2.17;;;6.80;99.90;;;;;;485204;245;28343;-66
2024/01/04 07:16:05;;;;;;;7.27;2.10;;;6.80;99.90;;;;;;485242;245;27414;-68
2024/01/04 07:18:07;;;;;;;7.85;2.33;;;6.80;99.90;;;;;;485100;245;27510;-67
2024/01/04 07:20:09;;;;;;;7.47;2.57;;;6.90;99.90;;;;;;485111;245;27498;-67
2024/01/04 07:22:10;;;;;;;11.43;2.30;;;6.90;99.90;;;;;;485193;245;28079;-67
2024/01/04 07:24:10;;;;;;;9.63;2.63;;;6.90;99.90;;;;;;485192;245;27392;-66
2024/01/04 07:26:12;;;;;;;14.40;2.77;;;6.90;99.90;;;;;;485248;245;27854;-67
2024/01/04 07:28:13;;;;;;;12.73;2.40;;;6.80;99.90;;;;;;485236;245;28336;-67
2024/01/04 07:30:14;;;;;;;8.77;2.90;;;6.80;99.90;;;;;;485232;245;27657;-66
2024/01/04 07:32:19;;;;;;;9.88;2.25;;;6.80;99.90;;;;;;485233;245;28032;-66
2024/01/04 07:34:17;;;;;;;15.43;2.60;;;6.80;99.90;;;;;;485072;245;27865;-66
2024/01/04 07:36:18;;;;;;;13.07;2.85;;;6.80;99.90;;;;;;485218;245;29225;-67
2024/01/04 07:38:19;;;;;;;16.17;2.67;;;6.80;99.90;;;;;;485254;245;27466;-66
2024/01/04 07:40:20;;;;;;;10.88;2.90;;;6.80;99.90;;;;;;485246;245;27510;-66
2024/01/04 07:42:22;;;;;;;18.47;3.57;;;6.80;99.90;;;;;;485233;245;27410;-67
2024/01/04 07:44:23;;;;;;;13.83;3.40;;;6.80;99.90;;;;;;485202;245;27892;-66
2024/01/04 07:46:24;;;;;;;15.27;3.00;;;6.80;99.90;;;;;;485243;245;27883;-66
2024/01/04 07:48:25;;;;;;;10.05;2.87;;;6.80;99.90;;;;;;485236;245;28589;-66
2024/01/04 07:50:27;;;;;;;10.77;2.70;;;6.80;99.90;;;;;;485240;245;27867;-66
2024/01/04 07:52:28;;;;;;;10.70;2.80;;;6.80;99.90;;;;;;485223;245;27394;-68
2024/01/04 07:54:29;;;;;;;13.27;3.00;;;6.80;99.90;;;;;;485209;245;28737;-66
2024/01/04 07:56:30;;;;;;;13.27;3.10;;;6.80;99.90;;;;;;485236;245;28765;-67
2024/01/04 07:58:32;;;;;;;14.98;2.83;;;6.80;99.90;;;;;;485238;245;27858;-66
2024/01/04 08:00:34;;;;;;;23.97;3.53;;;6.80;99.90;;;;;;485240;245;27422;-67
2024/01/04 08:02:34;;;;;;;11.23;3.07;;;6.70;99.90;;;;;;485198;245;27981;-66
2024/01/04 08:04:35;;;;;;;7.30;2.63;;;6.70;99.90;;;;;;485201;245;29247;-66
2024/01/04 08:06:37;;;;;;;17.07;3.83;;;6.70;99.90;;;;;;485237;245;28474;-67
2024/01/04 08:08:39;;;;;;;13.87;2.90;;;6.70;99.90;;;;;;485233;245;28380;-66
2024/01/04 08:10:39;;;;;;;19.60;2.83;;;6.70;99.90;;;;;;485177;245;28043;-66
2024/01/04 08:12:41;;;;;;;12.73;3.13;;;6.80;99.90;;;;;;485231;245;28223;-67
2024/01/04 08:14:42;;;;;;;12.87;3.00;;;6.80;99.90;;;;;;485176;245;27881;-66
2024/01/04 08:16:43;;;;;;;17.00;3.13;;;6.70;99.90;;;;;;485237;245;28307;-67
2024/01/04 08:18:44;;;;;;;11.27;2.40;;;6.70;99.90;;;;;;485235;245;27895;-67
2024/01/04 08:20:45;;;;;;;16.30;3.30;;;6.70;99.90;;;;;;485223;245;28756;-67
2024/01/04 08:22:47;;;;;;;14.63;3.50;;;6.80;99.90;;;;;;485223;245;28082;-67
2024/01/04 08:24:48;;;;;;;13.00;3.33;;;6.80;99.90;;;;;;485194;245;27735;-66
2024/01/04 08:26:50;;;;;;;18.67;3.63;;;6.70;99.90;;;;;;485236;245;27903;-67
2024/01/04 08:28:50;;;;;;;16.40;3.53;;;6.70;99.90;;;;;;485237;245;28334;-68
2024/01/04 08:30:52;;;;;;;23.67;4.80;;;6.80;99.90;;;;;;485220;245;28182;-67
2024/01/04 08:32:53;;;;;;;10.30;2.90;;;6.80;99.90;;;;;;485238;245;28369;-66
2024/01/04 08:34:54;;;;;;;13.47;3.63;;;6.70;99.90;;;;;;485217;245;27755;-66
2024/01/04 08:36:55;;;;;;;14.10;3.50;;;6.80;99.90;;;;;;485239;245;27525;-66
2024/01/04 08:38:57;;;;;;;12.87;3.17;;;6.80;99.90;;;;;;485246;245;27938;-67
2024/01/04 08:40:58;;;;;;;18.03;3.87;;;6.80;99.90;;;;;;485228;245;27760;-66
2024/01/04 08:42:59;;;;;;;15.13;2.93;;;6.80;99.90;;;;;;485243;245;27980;-66
2024/01/04 08:45:00;;;;;;;8.43;2.70;;;6.80;99.90;;;;;;485209;245;27793;-67
2024/01/04 08:47:02;;;;;;;12.40;3.30;;;6.80;99.90;;;;;;485236;245;27948;-66
2024/01/04 08:49:04;;;;;;;18.27;3.33;;;6.80;99.90;;;;;;485236;245;27916;-67
2024/01/04 08:51:04;;;;;;;20.03;3.50;;;6.80;99.90;;;;;;485223;245;27855;-66
2024/01/04 08:53:05;;;;;;;11.57;3.00;;;6.80;99.90;;;;;;483142;245;27913;-66
2024/01/04 08:55:07;;;;;;;13.10;3.50;;;6.80;99.90;;;;;;478438;248;28139;-68
2024/01/04 08:57:08;;;;;;;18.70;3.60;;;6.80;99.90;;;;;;478461;248;28328;-66
2024/01/04 08:59:09;;;;;;;23.33;3.47;;;6.80;99.90;;;;;;478470;248;27411;-68
2024/01/04 09:01:12;;;;;;;25.40;4.07;;;6.80;99.90;;;;;;478454;248;27751;-67
2024/01/04 09:03:12;;;;;;;18.97;3.70;;;6.80;99.90;;;;;;478427;248;27894;-66
2024/01/04 09:05:13;;;;;;;20.40;3.90;;;6.80;99.90;;;;;;478280;248;27740;-67
2024/01/04 09:07:14;;;;;;;15.83;4.03;;;6.80;99.90;;;;;;478469;247;28015;-66
2024/01/04 09:09:16;;;;;;;22.35;3.25;;;6.80;99.90;;;;;;478456;247;28800;-66
2024/01/04 09:11:17;;;;;;;22.63;3.63;;;6.80;99.90;;;;;;478456;248;27407;-66
2024/01/04 09:13:19;;;;;;;22.27;3.30;;;6.80;99.90;;;;;;478461;248;27740;-67
2024/01/04 09:15:19;;;;;;;16.77;3.28;;;6.90;99.90;;;;;;478378;248;28418;-68
2024/01/04 09:17:21;;;;;;;31.23;6.00;;;6.90;99.90;;;;;;478475;248;27418;-66
2024/01/04 09:19:22;;;;;;;17.77;3.60;;;6.90;99.90;;;;;;478474;248;27410;-66
2024/01/04 09:21:24;;;;;;;19.00;3.70;;;7.00;99.90;;;;;;478460;248;28776;-68
2024/01/04 09:23:24;;;;;;;17.80;3.73;;;6.90;99.90;;;;;;478459;248;27740;-67
2024/01/04 09:25:26;;;;;;;11.90;3.23;;;7.00;99.90;;;;;;478444;248;27767;-68
2024/01/04 09:27:27;;;;;;;19.03;3.20;;;7.00;99.90;;;;;;478434;248;27891;-66
2024/01/04 09:29:28;;;;;;;12.10;3.07;;;7.10;99.90;;;;;;478459;248;28830;-66
2024/01/04 09:31:30;;;;;;;18.47;3.47;;;7.10;99.90;;;;;;478452;248;27949;-68
2024/01/04 09:33:31;;;;;;;18.37;3.73;;;7.20;99.90;;;;;;478430;248;28021;-66
2024/01/04 09:35:32;;;;;;;10.23;2.97;;;7.20;99.90;;;;;;478372;248;28428;-66
2024/01/04 09:37:33;;;;;;;17.17;3.17;;;7.20;99.90;;;;;;478456;248;28144;-66
2024/01/04 09:39:35;;;;;;;16.17;3.00;;;7.20;99.90;;;;;;478468;248;27865;-67
2024/01/04 09:41:36;;;;;;;11.90;3.03;;;7.20;99.90;;;;;;478380;248;27553;-67
2024/01/04 09:43:37;;;;;;;13.80;3.47;;;7.20;99.90;;;;;;478450;248;27875;-67
2024/01/04 09:45:38;;;;;;;11.90;3.87;;;7.20;99.90;;;;;;478487;248;28030;-67
2024/01/04 09:47:40;;;;;;;20.70;2.87;;;7.20;99.90;;;;;;478488;248;27982;-67
2024/01/04 09:49:41;;;;;;;10.70;2.77;;;7.30;99.90;;;;;;478452;247;27932;-66
2024/01/04 09:51:42;;;;;;;12.00;3.33;;;7.40;99.90;;;;;;478483;248;27981;-66
2024/01/04 09:53:43;;;;;;;10.37;2.70;;;7.50;99.90;;;;;;478435;248;27899;-66
2024/01/04 09:55:44;;;;;;;18.23;2.93;;;7.50;99.90;;;;;;478491;247;27904;-66
2024/01/04 09:57:46;;;;;;;9.13;2.63;;;7.60;99.90;;;;;;478483;248;28049;-67
2024/01/04 09:59:47;;;;;;;9.70;2.70;;;7.60;99.90;;;;;;478445;248;28093;-66
2024/01/04 10:01:49;;;;;;;14.33;3.20;;;7.50;99.90;;;;;;478479;247;28267;-66
2024/01/04 10:03:49;;;;;;;21.17;3.63;;;7.50;99.90;;;;;;478445;248;28370;-66
2024/01/04 10:05:51;;;;;;;9.07;2.47;;;7.50;99.90;;;;;;478416;247;27569;-66
2024/01/04 10:07:52;;;;;;;10.03;2.80;;;7.50;99.90;;;;;;478488;248;27889;-67
2024/01/04 10:09:53;;;;;;;9.27;3.13;;;7.50;99.90;;;;;;478486;248;27866;-66
2024/01/04 10:11:54;;;;;;;14.30;3.53;;;7.40;99.90;;;;;;478468;247;27887;-67
2024/01/04 10:13:56;;;;;;;13.63;3.33;;;7.40;99.90;;;;;;478434;248;27900;-66
2024/01/04 10:15:59;;;;;;;9.23;2.93;;;7.50;99.90;;;;;;478497;248;27990;-67
2024/01/04 10:17:58;;;;;;;6.17;2.40;;;7.50;99.90;;;;;;478401;248;27986;-66
2024/01/04 10:20:01;;;;;;;15.93;2.93;;;7.50;99.90;;;;;;478476;248;27993;-66
2024/01/04 10:22:04;;;;;;;9.77;2.70;;;7.60;99.90;;;;;;478409;248;28082;-66
2024/01/04 10:24:02;;;;;;;13.13;2.23;;;7.60;99.90;;;;;;478311;248;27910;-67
2024/01/04 10:26:03;;;;;;;11.73;2.80;;;7.50;99.90;;;;;;478489;248;27847;-66
2024/01/04 10:28:04;;;;;;;26.17;3.33;;;7.50;99.90;;;;;;478484;248;28367;-67
2024/01/04 10:30:06;;;;;;;12.17;3.03;;;7.50;99.90;;;;;;478476;248;27879;-67
2024/01/04 10:32:10;;;;;;;15.53;2.90;;;7.60;99.90;;;;;;478481;248;28240;-66
2024/01/04 10:34:11;;;;;;;12.07;2.80;;;7.60;99.90;;;;;;478457;247;28493;-67
2024/01/04 10:36:13;;;;;;;13.40;2.67;;;7.50;99.90;;;;;;478481;248;28356;-67